Nearby METAR Reports

 

KLOM - Philly Wings F, Pennsylvania, USA
Distance from station: SW 6mi, 10km
Updated: Thu, 23-Oct-2014 5:55am EDT
Overcast
Overcast
 Wind from NNW
Wind: NNW 7 mph , 11 km/h
Temperature: 52°F , 11°C
Dew Point: 46°F , 8°C
Humidity: 82%
Barometer: 29.76 inHg , 1007.8 hPa
Clouds: Overcast
Visibility: 10 miles , 16 km
Cloud details: Partly cloudy 1400 ft
Partly cloudy 1800 ft
Overcast 3400 ft
2014/10/23 09:55 KLOM 230955Z AUTO 33006KT 10SM SCT014 SCT018 OVC034 11/08 A2976 RMK AO1
KDYL - Doylestown, Pennsylvania, USA
Distance from station: NNE 10mi, 17km
Updated: Thu, 23-Oct-2014 5:54am EDT
Light rain, Overcast
Light rain, Overcast
 Wind from N
Wind: N 10 mph , 17 km/h
Temperature: 48°F , 9°C
Wind Chill: 44°F , 7°C
Dew Point: 46°F , 8°C
Humidity: 94%
Barometer: 29.76 inHg , 1007.8 hPa
Summary: Light rain
Clouds: Overcast
Visibility: 10 miles , 16 km
Cloud details: Mostly cloudy 3800 ft
Overcast 4600 ft
2014/10/23 09:54 KDYL 230954Z AUTO 35009KT 10SM -RA BKN038 OVC046 09/08 A2976 RMK AO2 RAB24 SLP078 P0000 T00940078 $
KPNE - Philadelphia/Ne, Pennsylvania, USA
Distance from station: SE 11mi, 18km
Updated: Thu, 23-Oct-2014 5:54am EDT
Light rain, Overcast
Light rain, Overcast
 Wind from N
Wind: N 15 mph , 24 km/h, Gust: 25 mph , 41 km/h
Temperature: 54°F , 12°C
Dew Point: 45°F , 7°C
Humidity: 72%
Barometer: 29.77 inHg , 1008.1 hPa
Summary: Light rain
Clouds: Overcast
Visibility: 10 miles , 16 km
Cloud details: Partly cloudy 3000 ft
Overcast 3900 ft
2014/10/23 09:54 KPNE 230954Z 35013G22KT 10SM -RA SCT030 OVC039 12/07 A2977 RMK AO2 RAB44 SLP079 P0000 T01220072 $
 
KPTW - Pottstown, Pennsylvania, USA
Distance from station: W 20mi, 32km
Updated: Thu, 23-Oct-2014 5:54am EDT
Overcast
Overcast
 Wind from NNW
Wind: NNW 13 mph , 20 km/h
Temperature: 52°F , 11°C
Dew Point: 43°F , 6°C
Humidity: 72%
Barometer: 29.80 inHg , 1009.1 hPa
Clouds: Overcast
Visibility: 10 miles , 16 km
Cloud details: Few Clouds 3600 ft
Mostly cloudy 4900 ft
Overcast 7000 ft
2014/10/23 09:54 KPTW 230954Z AUTO 33011KT 10SM FEW036 BKN049 OVC070 11/06 A2980 RMK AO2 SLP090 T01060061
KTTN - Trenton, New Jersey, USA
Distance from station: ENE 20mi, 32km
Updated: Thu, 23-Oct-2014 5:53am EDT
Light rain, Overcast
Light rain, Overcast
 Wind from N
Wind: N 13 mph , 20 km/h
Temperature: 52°F , 11°C
Dew Point: 46°F , 8°C
Humidity: 82%
Barometer: 29.74 inHg , 1007.1 hPa
Summary: Light rain
Clouds: Overcast
Visibility: 10 miles , 16 km
Cloud details: Overcast 2400 ft
2014/10/23 09:53 KTTN 230953Z 35011KT 10SM -RA OVC024 11/08 A2974 RMK AO2 RAB28 SLP064 P0000 T01060078
KUKT - Quakertown Arp, Pennsylvania, USA
Distance from station: NNW 20mi, 32km
Updated: Thu, 23-Oct-2014 5:55am EDT
Overcast
Overcast
 Wind from NNW
Wind: NNW 10 mph , 17 km/h, Gust: 16 mph , 26 km/h
Temperature: 50°F , 10°C
Wind Chill: 46°F , 8°C
Dew Point: 45°F , 7°C
Humidity: 82%
Barometer: 29.79 inHg , 1008.8 hPa
Clouds: Overcast
Visibility: 10 miles , 16 km
Cloud details: Mostly cloudy 5000 ft
Overcast 8500 ft
2014/10/23 09:55 KUKT 230955Z AUTO 34009G14KT 10SM BKN050 OVC085 10/07 A2979 RMK AO1
 
KPHL - Philadelphia, Pennsylvania, USA
Distance from station: S 22mi, 36km
Updated: Thu, 23-Oct-2014 5:54am EDT
Overcast
Overcast
 Wind from NNW
Wind: NNW 17 mph , 28 km/h
Temperature: 54°F , 12°C
Dew Point: 45°F , 7°C
Humidity: 72%
Barometer: 29.77 inHg , 1008.1 hPa
Clouds: Overcast
Visibility: 10 miles , 16 km
Cloud details: Mostly cloudy 3200 ft
Mostly cloudy 4000 ft
Overcast 5500 ft
2014/10/23 09:54 KPHL 230954Z 33015KT 10SM BKN032 BKN040 OVC055 12/07 A2977 RMK AO2 SLP081 T01170072 $
KVAY - Mount Holly, New Jersey, USA
Distance from station: SE 25mi, 41km
Updated: Thu, 23-Oct-2014 5:54am EDT
Overcast
Overcast
 Wind from NNW
Wind: NNW 9 mph , 15 km/h
Temperature: 54°F , 12°C
Dew Point: 46°F , 8°C
Humidity: 77%
Barometer: 29.74 inHg , 1007.1 hPa
Clouds: Overcast
Visibility: 10 miles , 16 km
Cloud details: Overcast 2700 ft
2014/10/23 09:54 KVAY 230954Z AUTO 33008KT 10SM OVC027 12/08 A2974 RMK AO2 SLP069 T01170078
KXLL - Allentown Queen, Pennsylvania, USA
Distance from station: NNW 31mi, 49km
Updated: Thu, 23-Oct-2014 5:55am EDT
Overcast
Overcast
 Wind from NNW
Wind: NNW 8 mph , 13 km/h
Temperature: 52°F , 11°C
Dew Point: 43°F , 6°C
Humidity: 72%
Barometer: 29.82 inHg , 1009.8 hPa
Clouds: Overcast
Visibility: 10 miles , 16 km
Cloud details: Overcast 3600 ft
2014/10/23 09:55 KXLL 230955Z AUTO 34007KT 10SM OVC036 11/06 A2982 RMK AO2
 
KWRI - Wrightst/Mcguire, New Jersey, USA
Distance from station: ESE 34mi, 54km
Updated: Thu, 23-Oct-2014 5:58am EDT
Light rain, Overcast
Light rain, Overcast
 Wind from NNW
Wind: NNW 16 mph , 26 km/h
Temperature: 52°F , 11°C
Dew Point: 48°F , 9°C
Humidity: 88%
Barometer: 29.71 inHg , 1006.1 hPa
Summary: Light rain
Clouds: Overcast
Visibility: 10 miles , 16 km
Cloud details: Overcast 2100 ft
2014/10/23 09:58 KWRI 230958Z AUTO 33014KT 10SM -RA OVC021 11/09 A2971 RMK AO2 RAB0945 SLP064 P0000 T01110085
KABE - Allentown, Pennsylvania, USA
Distance from station: NNW 35mi, 56km
Updated: Thu, 23-Oct-2014 5:51am EDT
Overcast
Overcast
 Wind from N
Wind: N 14 mph , 22 km/h, Gust: 22 mph , 35 km/h
Temperature: 52°F , 11°C
Dew Point: 43°F , 6°C
Humidity: 72%
Barometer: 29.80 inHg , 1009.1 hPa
Clouds: Overcast
Visibility: 10 miles , 16 km
Cloud details: Mostly cloudy 4000 ft
Mostly cloudy 5000 ft
Overcast 8000 ft
2014/10/23 09:51 KABE 230951Z AUTO 35012G19KT 10SM BKN040 BKN050 OVC080 11/06 A2980 RMK AO2 SLP092 T01060061 TSNO
KMQS - Coatesville, Pennsylvania, USA
Distance from station: WSW 39mi, 63km
Updated: Thu, 23-Oct-2014 5:55am EDT
Light rain, Overcast
Light rain, Overcast
 Wind from NW
Wind: NW 14 mph , 22 km/h, Gust: 22 mph , 35 km/h
Temperature: 50°F , 10°C
Wind Chill: 45°F , 7°C
Dew Point: 45°F , 7°C
Humidity: 82%
Barometer: 29.81 inHg , 1009.5 hPa
Summary: Light rain
Clouds: Overcast
Visibility: 10 miles , 16 km
Cloud details: Partly cloudy 3300 ft
Mostly cloudy 3900 ft
Overcast 6500 ft
2014/10/23 09:55 KMQS 230955Z AUTO 32012G19KT 10SM -RA SCT033 BKN039 OVC065 10/07 A2981 RMK AO2
 
KSMQ - Somerville, New Jersey, USA
Distance from station: NE 40mi, 64km
Updated: Thu, 23-Oct-2014 5:53am EDT
Light rain, Overcast
Light rain, Overcast
 Wind from NNW
Wind: NNW 7 mph , 11 km/h
Temperature: 52°F , 11°C
Dew Point: 46°F , 8°C
Humidity: 82%
Barometer: 29.73 inHg , 1006.8 hPa
Summary: Light rain
Clouds: Overcast
Visibility: 8 miles , 13 km
Cloud details: Mostly cloudy 2600 ft
Overcast 3200 ft
2014/10/23 09:53 KSMQ 230953Z AUTO 34006KT 8SM -RA BKN026 OVC032 11/08 A2973 RMK AO2 RAE30B47 SLP067 P0002 T01110078
KILG - Wilmington, Delaware, USA
Distance from station: SSW 42mi, 68km
Updated: Thu, 23-Oct-2014 5:51am EDT
Overcast
Overcast
 Wind from NNW
Wind: NNW 14 mph , 22 km/h, Gust: 25 mph , 41 km/h
Temperature: 52°F , 11°C
Dew Point: 45°F , 7°C
Humidity: 77%
Barometer: 29.79 inHg , 1008.8 hPa
Clouds: Overcast
Visibility: 10 miles , 16 km
Cloud details: Mostly cloudy 3600 ft
Mostly cloudy 4500 ft
Overcast 8000 ft
2014/10/23 09:51 KILG 230951Z 33012G22KT 10SM BKN036 BKN045 OVC080 11/07 A2979 RMK AO2 SLP088 T01110067
KRDG - Reading, Pennsylvania, USA
Distance from station: WNW 43mi, 70km
Updated: Thu, 23-Oct-2014 5:54am EDT
Overcast
Overcast
 Wind from NNW
Wind: NNW 14 mph , 22 km/h
Temperature: 52°F , 11°C
Dew Point: 43°F , 6°C
Humidity: 72%
Barometer: 29.82 inHg , 1009.8 hPa
Clouds: Overcast
Visibility: 10 miles , 16 km
Cloud details: Mostly cloudy 2700 ft
Mostly cloudy 3200 ft
Overcast 4000 ft
2014/10/23 09:54 KRDG 230954Z 33012KT 10SM BKN027 BKN032 OVC040 11/06 A2982 RMK AO2 RAE31 SLP104 P0000 T01110061
 
KNEL - Lakehurst Nas, New Jersey, USA
Distance from station: ESE 46mi, 74km
Updated: Mon, 06-Oct-2014 4:00pm EDT
NOT Current
Clear
Clear
 Wind from S
Wind: S 15 mph , 24 km/h, Gust: 23 mph , 37 km/h
Temperature: 70°F , 21°C
Dew Point: 46°F , 8°C
Humidity: 43%
Barometer: 30.01 inHg , 1016.3 hPa
Clouds: Clear
Visibility: 10 miles , 16 km
2014/10/06 20:00 KNEL 062000Z AUTO 17013G20KT 10SM CLR 21/08 A3001 RMK AO2 SLP163 T02110083 $
KMJX - Toms River, New Jersey, USA
Distance from station: ESE 50mi, 80km
Updated: Thu, 23-Oct-2014 5:55am EDT
Overcast
Overcast
 Wind from NNW
Wind: NNW 6 mph , 9 km/h
Temperature: 52°F , 11°C
Dew Point: 48°F , 9°C
Humidity: 88%
Barometer: 29.70 inHg , 1005.8 hPa
Clouds: Overcast
Visibility: 10 miles , 16 km
Cloud details: Overcast 2100 ft
2014/10/23 09:55 KMJX 230955Z AUTO 34005KT 10SM OVC021 11/09 A2970 RMK AO1